createdAt,value
2023-02-16T00:02:36.011Z,1.80
2023-02-16T00:05:27.252Z,1.80
2023-02-16T00:08:14.972Z,1.80
2023-02-16T00:11:19.599Z,1.90
2023-02-16T00:14:09.723Z,2.00
2023-02-16T00:16:59.325Z,2.00
2023-02-16T00:19:46.532Z,2.10
2023-02-16T00:22:35.211Z,2.20
2023-02-16T00:25:22.458Z,2.30
2023-02-16T00:28:16.912Z,2.30
2023-02-16T00:31:05.871Z,2.30
2023-02-16T00:33:55.543Z,2.20
2023-02-16T00:36:42.856Z,2.20
2023-02-16T00:39:32.013Z,2.30
2023-02-16T00:42:23.959Z,2.30
2023-02-16T00:45:17.199Z,2.30
2023-02-16T00:48:05.004Z,2.30
2023-02-16T00:50:52.637Z,2.10
2023-02-16T00:53:40.054Z,2.20
2023-02-16T00:56:29.043Z,2.20
2023-02-16T00:59:19.248Z,1.90
2023-02-16T01:02:06.733Z,2.00
2023-02-16T01:04:54.169Z,1.90
2023-02-16T01:07:59.199Z,1.90
2023-02-16T01:11:06.881Z,1.90
2023-02-16T01:13:57.954Z,1.90
2023-02-16T01:16:45.805Z,2.00
2023-02-16T01:19:33.232Z,2.00
2023-02-16T01:22:20.859Z,2.00
2023-02-16T01:25:08.540Z,1.90
2023-02-16T01:27:55.892Z,1.80
2023-02-16T01:30:44.704Z,1.70
2023-02-16T01:33:32.170Z,1.70
2023-02-16T01:36:25.123Z,1.60
2023-02-16T01:39:14.604Z,1.60
2023-02-16T01:42:19.344Z,1.50
2023-02-16T01:45:14.204Z,1.60
2023-02-16T01:48:05.813Z,1.70
2023-02-16T01:51:00.104Z,1.70
2023-02-16T01:53:51.482Z,1.80
2023-02-16T01:56:46.952Z,1.80
2023-02-16T01:59:43.200Z,1.80
2023-02-16T02:02:37.239Z,1.90
2023-02-16T02:05:37.014Z,1.90
2023-02-16T02:08:32.553Z,1.90
2023-02-16T02:11:26.365Z,1.90
2023-02-16T02:14:20.041Z,1.90
2023-02-16T02:17:13.370Z,1.90
2023-02-16T02:20:12.513Z,1.80
2023-02-16T02:23:32.641Z,1.80
2023-02-16T02:26:49.936Z,1.90
2023-02-16T02:30:03.841Z,1.90
2023-02-16T02:33:03.868Z,1.90
2023-02-16T02:36:00.590Z,1.90
2023-02-16T02:39:00.940Z,1.90
2023-02-16T02:42:06.479Z,1.80
2023-02-16T02:45:08.626Z,1.90
2023-02-16T02:47:56.383Z,1.90
2023-02-16T02:51:11.344Z,1.80
2023-02-16T02:54:21.344Z,1.80
2023-02-16T02:57:35.460Z,1.80
2023-02-16T03:00:44.705Z,1.80
2023-02-16T03:03:37.028Z,1.80
2023-02-16T03:06:28.128Z,1.70
2023-02-16T03:09:16.676Z,1.70
2023-02-16T03:12:24.456Z,1.60
2023-02-16T03:15:14.149Z,1.50
2023-02-16T03:18:20.051Z,1.50
2023-02-16T03:21:25.077Z,1.40
2023-02-16T03:24:34.215Z,1.30
2023-02-16T03:27:43.808Z,1.20
2023-02-16T03:30:33.925Z,1.20
2023-02-16T03:33:22.086Z,1.30
2023-02-16T03:36:10.283Z,1.20
2023-02-16T03:38:58.416Z,1.10
2023-02-16T03:41:50.889Z,1.00
2023-02-16T03:44:38.243Z,0.90
2023-02-16T03:47:27.086Z,0.90
2023-02-16T03:50:14.332Z,1.00
2023-02-16T03:53:07.806Z,1.00
2023-02-16T03:55:55.372Z,1.10
2023-02-16T03:58:42.893Z,1.10
2023-02-16T04:01:30.431Z,1.20
2023-02-16T04:04:18.960Z,1.20
2023-02-16T04:07:06.199Z,1.10
2023-02-16T04:09:53.602Z,1.20
2023-02-16T04:12:39.981Z,1.20
2023-02-16T04:15:29.958Z,1.30
2023-02-16T04:18:17.774Z,1.30
2023-02-16T04:21:06.929Z,1.30
2023-02-16T04:23:54.219Z,1.30
2023-02-16T04:26:41.797Z,1.30
2023-02-16T04:29:29.754Z,1.30
2023-02-16T04:32:17.268Z,1.40
2023-02-16T04:35:05.143Z,1.40
2023-02-16T04:37:54.091Z,1.30
2023-02-16T04:40:41.509Z,1.30
2023-02-16T04:43:28.563Z,1.30
2023-02-16T04:46:15.890Z,1.30
2023-02-16T04:49:03.526Z,1.20
2023-02-16T04:51:50.536Z,1.10
2023-02-16T04:54:39.403Z,1.00
2023-02-16T04:57:27.180Z,1.10
2023-02-16T05:00:15.188Z,1.20
2023-02-16T05:03:02.526Z,1.20
2023-02-16T05:05:50.670Z,1.20
2023-02-16T05:08:37.965Z,1.30
2023-02-16T05:11:44.293Z,1.20
2023-02-16T05:14:45.980Z,1.20
2023-02-16T05:17:33.289Z,1.20
2023-02-16T05:20:40.502Z,1.20
2023-02-16T05:23:27.769Z,1.20
2023-02-16T05:26:15.280Z,1.20
2023-02-16T05:29:04.785Z,1.20
2023-02-16T05:31:52.112Z,1.20
2023-02-16T05:34:39.721Z,1.20
2023-02-16T05:37:27.040Z,1.10
2023-02-16T05:40:15.004Z,1.10
2023-02-16T05:43:02.082Z,1.20
2023-02-16T05:45:51.058Z,1.20
2023-02-16T05:48:38.261Z,1.10
2023-02-16T05:51:25.674Z,1.00
2023-02-16T05:54:17.318Z,1.00
2023-02-16T05:57:04.431Z,1.10
2023-02-16T05:59:51.973Z,1.10
2023-02-16T06:02:40.933Z,1.10
2023-02-16T06:05:28.135Z,1.20
2023-02-16T06:08:15.515Z,1.20
2023-02-16T06:11:03.168Z,1.20
2023-02-16T06:13:50.303Z,1.20
2023-02-16T06:16:39.665Z,1.30
2023-02-16T06:19:28.574Z,1.20
2023-02-16T06:22:15.677Z,1.20
2023-02-16T06:25:03.141Z,1.10
2023-02-16T06:27:50.498Z,1.10
2023-02-16T06:30:38.350Z,1.20
2023-02-16T06:33:25.686Z,1.10
2023-02-16T06:36:14.596Z,1.20
2023-02-16T06:39:02.069Z,1.10
2023-02-16T06:41:49.693Z,1.10
2023-02-16T06:44:37.338Z,1.10
2023-02-16T06:47:24.472Z,1.10
2023-02-16T06:50:14.345Z,1.10
2023-02-16T06:53:02.859Z,1.20
2023-02-16T06:55:51.872Z,1.20
2023-02-16T06:58:39.253Z,1.20
2023-02-16T07:01:26.663Z,1.30
2023-02-16T07:04:14.277Z,1.30
2023-02-16T07:07:01.471Z,1.30
2023-02-16T07:09:50.261Z,1.30
2023-02-16T07:12:37.366Z,1.30
2023-02-16T07:15:24.767Z,1.40
2023-02-16T07:18:12.220Z,1.50
2023-02-16T07:20:59.745Z,1.50
2023-02-16T07:23:47.042Z,1.60
2023-02-16T07:26:38.626Z,1.60
2023-02-16T07:29:26.082Z,1.60
2023-02-16T07:32:13.508Z,1.60
2023-02-16T07:35:00.927Z,1.70
2023-02-16T07:37:48.366Z,1.80
2023-02-16T07:40:35.827Z,1.80
2023-02-16T07:43:24.338Z,1.90
2023-02-16T07:46:11.813Z,2.00
2023-02-16T07:48:59.206Z,2.00
2023-02-16T07:51:46.702Z,2.10
2023-02-16T07:54:34.459Z,2.10
2023-02-16T07:57:22.273Z,2.10
2023-02-16T08:00:12.332Z,2.20
2023-02-16T08:02:59.961Z,2.30
2023-02-16T08:05:47.130Z,2.30
2023-02-16T08:08:34.967Z,2.40
2023-02-16T08:11:24.506Z,2.50
2023-02-16T08:14:12.241Z,2.60
2023-02-16T08:17:00.938Z,2.60
2023-02-16T08:19:48.184Z,2.70
2023-02-16T08:22:35.991Z,2.70
2023-02-16T08:25:23.363Z,2.80
2023-02-16T08:28:15.024Z,3.00
2023-02-16T08:31:04.452Z,3.00
2023-02-16T08:33:55.231Z,3.10
2023-02-16T08:36:44.507Z,3.20
2023-02-16T08:39:33.801Z,3.30
2023-02-16T08:42:21.353Z,3.50
2023-02-16T08:45:09.392Z,3.60
2023-02-16T08:47:57.450Z,4.10
2023-02-16T08:50:53.207Z,4.80
2023-02-16T08:53:40.680Z,5.40
2023-02-16T08:56:29.602Z,5.70
2023-02-16T08:59:18.160Z,5.90
2023-02-16T09:02:05.208Z,6.10
2023-02-16T09:04:53.322Z,6.50
2023-02-16T09:07:41.786Z,6.80
2023-02-16T09:10:29.031Z,7.10
2023-02-16T09:13:16.350Z,7.40
2023-02-16T09:16:05.201Z,7.90
2023-02-16T09:18:53.282Z,8.20
2023-02-16T09:21:40.672Z,7.80
2023-02-16T09:24:29.393Z,8.30
2023-02-16T09:27:17.002Z,8.70
2023-02-16T09:30:05.912Z,9.00
2023-02-16T09:32:53.289Z,9.40
2023-02-16T09:35:41.197Z,9.20
2023-02-16T09:38:28.685Z,9.30
2023-02-16T09:41:26.396Z,9.60
2023-02-16T09:44:22.345Z,10.10
2023-02-16T09:47:19.365Z,9.70
2023-02-16T09:50:14.439Z,10.10
2023-02-16T09:53:04.581Z,9.90
2023-02-16T09:56:03.221Z,10.20
2023-02-16T09:58:58.443Z,10.40
2023-02-16T10:01:54.066Z,10.20
2023-02-16T10:04:46.297Z,10.40
2023-02-16T10:07:40.321Z,10.00
2023-02-16T10:10:34.834Z,10.60
2023-02-16T10:13:27.555Z,10.90
2023-02-16T10:16:22.707Z,11.50
2023-02-16T10:19:20.767Z,11.60
2023-02-16T10:22:17.014Z,12.00
2023-02-16T10:25:10.917Z,12.40
2023-02-16T10:28:16.642Z,12.50
2023-02-16T10:31:06.283Z,12.20
2023-02-16T10:34:09.301Z,11.40
2023-02-16T10:37:17.054Z,11.20
2023-02-16T10:40:23.218Z,11.00
2023-02-16T10:43:17.712Z,10.70
2023-02-16T10:46:06.534Z,10.80
2023-02-16T10:48:54.823Z,10.50
2023-02-16T10:51:48.972Z,10.60
2023-02-16T10:54:37.346Z,10.50
2023-02-16T10:57:28.337Z,10.70
2023-02-16T11:00:23.370Z,10.60
2023-02-16T11:03:15.427Z,10.60
2023-02-16T11:06:15.151Z,10.60
2023-02-16T11:09:06.570Z,10.50
2023-02-16T11:11:53.970Z,10.60
2023-02-16T11:14:41.542Z,10.80
2023-02-16T11:17:29.021Z,10.80
2023-02-16T11:20:28.755Z,10.70
2023-02-16T11:23:22.845Z,10.70
2023-02-16T11:26:24.675Z,10.70
2023-02-16T11:29:20.623Z,10.50
2023-02-16T11:32:09.868Z,10.40
2023-02-16T11:34:58.441Z,10.20
2023-02-16T11:37:45.776Z,10.50
2023-02-16T11:40:35.327Z,10.60
2023-02-16T11:43:26.915Z,10.40
2023-02-16T11:46:16.809Z,10.70
2023-02-16T11:49:22.292Z,10.80
2023-02-16T11:52:25.439Z,10.80
2023-02-16T11:55:21.191Z,11.00
2023-02-16T11:58:18.410Z,11.00
2023-02-16T12:01:22.248Z,11.10
2023-02-16T12:04:22.572Z,11.10
2023-02-16T12:07:20.205Z,11.10
2023-02-16T12:10:18.301Z,10.90
2023-02-16T12:13:15.895Z,11.00
2023-02-16T12:16:16.815Z,10.90
2023-02-16T12:19:17.472Z,11.00
2023-02-16T12:22:10.656Z,10.90
2023-02-16T12:25:10.177Z,10.90
2023-02-16T12:28:07.038Z,11.00
2023-02-16T12:31:06.194Z,11.00
2023-02-16T12:34:07.388Z,10.80
2023-02-16T12:37:05.028Z,10.90
2023-02-16T12:40:02.923Z,10.80
2023-02-16T12:43:02.952Z,10.80
2023-02-16T12:45:51.991Z,10.90
2023-02-16T12:48:46.927Z,11.10
2023-02-16T12:51:39.271Z,11.10
2023-02-16T12:54:32.093Z,11.10
2023-02-16T12:57:24.061Z,10.90
2023-02-16T13:00:21.789Z,10.90
2023-02-16T13:03:27.290Z,10.90
2023-02-16T13:06:23.719Z,11.00
2023-02-16T13:09:24.519Z,11.00
2023-02-16T13:12:18.845Z,11.00
2023-02-16T13:15:14.236Z,11.00
2023-02-16T13:18:05.678Z,11.10
2023-02-16T13:20:59.932Z,11.30
2023-02-16T13:24:00.957Z,11.20
2023-02-16T13:27:05.198Z,11.50
2023-02-16T13:30:15.887Z,11.60
2023-02-16T13:33:39.179Z,11.60
2023-02-16T13:36:43.043Z,11.60
2023-02-16T13:39:53.875Z,11.50
2023-02-16T13:43:06.621Z,11.50
2023-02-16T13:45:55.158Z,11.70
2023-02-16T13:48:48.624Z,11.80
2023-02-16T13:51:44.326Z,11.80
2023-02-16T13:54:34.377Z,11.90
2023-02-16T13:58:04.448Z,11.80
2023-02-16T14:00:53.022Z,11.50
2023-02-16T14:03:40.575Z,11.70
2023-02-16T14:06:34.374Z,11.70
2023-02-16T14:09:47.636Z,11.70
2023-02-16T14:12:40.538Z,11.60
2023-02-16T14:15:29.337Z,11.60
2023-02-16T14:18:22.958Z,11.70
2023-02-16T14:21:20.680Z,11.70
2023-02-16T14:24:13.466Z,11.70
2023-02-16T14:27:02.854Z,11.70
2023-02-16T14:29:57.507Z,11.70
2023-02-16T14:32:51.121Z,11.70
2023-02-16T14:35:41.672Z,11.70
2023-02-16T14:38:30.982Z,11.80
2023-02-16T14:41:28.187Z,11.70
2023-02-16T14:44:33.859Z,11.80
2023-02-16T14:47:29.203Z,11.80
2023-02-16T14:50:35.233Z,11.80
2023-02-16T14:53:47.006Z,11.80
2023-02-16T14:56:43.785Z,11.80
2023-02-16T14:59:35.988Z,11.80
2023-02-16T15:02:29.337Z,11.80
2023-02-16T15:05:18.764Z,11.70
2023-02-16T15:08:13.114Z,11.70
2023-02-16T15:11:00.554Z,11.60
2023-02-16T15:13:53.387Z,11.60
2023-02-16T15:16:41.994Z,11.60
2023-02-16T15:19:32.277Z,11.60
2023-02-16T15:22:22.343Z,11.60
2023-02-16T15:25:23.103Z,11.60
2023-02-16T15:28:21.913Z,11.60
2023-02-16T15:31:18.098Z,11.50
2023-02-16T15:34:07.949Z,11.50
2023-02-16T15:36:55.626Z,11.40
2023-02-16T15:39:58.003Z,11.30
2023-02-16T15:42:52.742Z,11.30
2023-02-16T15:45:40.466Z,11.30
2023-02-16T15:48:33.514Z,11.30
2023-02-16T15:51:25.634Z,11.20
2023-02-16T15:54:23.169Z,11.10
2023-02-16T15:57:16.633Z,11.10
2023-02-16T16:00:09.483Z,11.00
2023-02-16T16:03:02.822Z,10.90
2023-02-16T16:06:01.266Z,10.90
2023-02-16T16:08:48.478Z,10.90
2023-02-16T16:11:37.167Z,10.80
2023-02-16T16:14:25.801Z,10.70
2023-02-16T16:17:16.524Z,10.70
2023-02-16T16:20:20.377Z,10.60
2023-02-16T16:23:26.928Z,10.50
2023-02-16T16:26:19.412Z,10.50
2023-02-16T16:29:31.760Z,10.40
2023-02-16T16:32:23.563Z,10.40
2023-02-16T16:35:22.685Z,10.30
2023-02-16T16:38:23.941Z,10.20
2023-02-16T16:41:27.648Z,10.10
2023-02-16T16:44:33.466Z,10.10
2023-02-16T16:47:27.888Z,10.00
2023-02-16T16:50:39.426Z,9.90
2023-02-16T16:53:54.405Z,9.90
2023-02-16T16:56:42.919Z,9.80
2023-02-16T16:59:30.377Z,9.80
2023-02-16T17:02:18.134Z,9.80
2023-02-16T17:05:07.796Z,9.80
2023-02-16T17:07:55.194Z,9.70
2023-02-16T17:10:42.997Z,9.70
2023-02-16T17:13:30.718Z,9.60
2023-02-16T17:16:22.559Z,9.60
2023-02-16T17:19:12.878Z,9.60
2023-02-16T17:22:01.623Z,9.60
2023-02-16T17:24:48.918Z,9.60
2023-02-16T17:27:36.502Z,9.50
2023-02-16T17:30:24.120Z,9.60
2023-02-16T17:33:12.086Z,9.60
2023-02-16T17:35:59.693Z,9.50
2023-02-16T17:38:49.918Z,9.50
2023-02-16T17:41:37.380Z,9.50
2023-02-16T17:44:25.106Z,9.50
2023-02-16T17:47:16.421Z,9.40
2023-02-16T17:50:04.037Z,9.50
2023-02-16T17:52:57.005Z,9.50
2023-02-16T17:55:46.626Z,9.40
2023-02-16T17:58:35.254Z,9.40
2023-02-16T18:01:22.588Z,9.40
2023-02-16T18:04:09.884Z,9.30
2023-02-16T18:06:57.799Z,9.30
2023-02-16T18:09:45.364Z,9.30
2023-02-16T18:12:34.248Z,9.30
2023-02-16T18:15:21.388Z,9.30
2023-02-16T18:18:09.320Z,9.20
2023-02-16T18:20:56.740Z,9.20
2023-02-16T18:23:44.052Z,9.30
2023-02-16T18:26:33.614Z,9.30
2023-02-16T18:29:22.404Z,9.40
2023-02-16T18:32:09.676Z,9.40
2023-02-16T18:34:57.074Z,9.40
2023-02-16T18:37:44.871Z,9.40
2023-02-16T18:40:32.071Z,9.30
2023-02-16T18:43:21.046Z,9.30
2023-02-16T18:46:10.627Z,9.30
2023-02-16T18:48:57.867Z,9.20
2023-02-16T18:51:45.439Z,9.30
2023-02-16T18:54:33.331Z,9.30
2023-02-16T18:57:22.567Z,9.30
2023-02-16T19:00:14.618Z,9.30
2023-02-16T19:03:03.675Z,9.20
2023-02-16T19:05:50.773Z,9.10
2023-02-16T19:08:38.170Z,9.20
2023-02-16T19:11:25.542Z,9.20
2023-02-16T19:14:13.336Z,9.20
2023-02-16T19:17:00.783Z,9.20
2023-02-16T19:19:49.644Z,9.20
2023-02-16T19:22:37.244Z,9.10
2023-02-16T19:25:24.831Z,9.10
2023-02-16T19:28:12.195Z,9.10
2023-02-16T19:31:02.225Z,9.00
2023-02-16T19:33:50.067Z,8.80
2023-02-16T19:36:38.675Z,8.80
2023-02-16T19:39:25.933Z,8.90
2023-02-16T19:42:13.678Z,8.90
2023-02-16T19:45:00.783Z,8.90
2023-02-16T19:47:50.339Z,8.90
2023-02-16T19:50:37.460Z,8.90
2023-02-16T19:53:26.471Z,9.00
2023-02-16T19:56:15.886Z,8.90
2023-02-16T19:59:03.144Z,8.90
2023-02-16T20:01:50.171Z,8.90
2023-02-16T20:04:37.511Z,8.90
2023-02-16T20:07:25.075Z,8.90
2023-02-16T20:10:13.932Z,8.90
2023-02-16T20:13:01.399Z,8.90
2023-02-16T20:15:49.103Z,8.90
2023-02-16T20:18:37.431Z,8.90
2023-02-16T20:21:26.755Z,8.90
2023-02-16T20:24:15.055Z,8.80
2023-02-16T20:27:04.406Z,8.90
2023-02-16T20:29:51.618Z,8.90
2023-02-16T20:32:38.991Z,8.90
2023-02-16T20:35:26.518Z,8.90
2023-02-16T20:38:14.243Z,8.80
2023-02-16T20:41:02.870Z,8.80
2023-02-16T20:43:51.909Z,8.80
2023-02-16T20:46:40.617Z,8.80
2023-02-16T20:49:27.972Z,8.80
2023-02-16T20:52:15.534Z,8.70
2023-02-16T20:55:02.967Z,8.70
2023-02-16T20:57:50.129Z,8.70
2023-02-16T21:00:38.979Z,8.70
2023-02-16T21:03:26.439Z,8.70
2023-02-16T21:06:13.766Z,8.70
2023-02-16T21:09:01.327Z,8.60
2023-02-16T21:11:48.906Z,8.50
2023-02-16T21:14:36.333Z,8.50
2023-02-16T21:17:25.424Z,8.50
2023-02-16T21:20:12.931Z,8.40
2023-02-16T21:23:03.401Z,8.40
2023-02-16T21:25:51.394Z,8.30
2023-02-16T21:28:38.793Z,8.20
2023-02-16T21:31:26.870Z,8.10
2023-02-16T21:34:15.616Z,8.20
2023-02-16T21:37:02.940Z,8.10
2023-02-16T21:40:16.117Z,8.20
2023-02-16T21:43:03.353Z,8.10
2023-02-16T21:45:59.555Z,8.20
2023-02-16T21:48:47.101Z,8.10
2023-02-16T21:51:37.684Z,8.10
2023-02-16T21:54:44.930Z,8.10
2023-02-16T21:57:31.014Z,8.10
2023-02-16T22:00:19.358Z,8.10
2023-02-16T22:03:07.804Z,8.10
2023-02-16T22:05:54.958Z,8.00
2023-02-16T22:08:43.642Z,8.00
2023-02-16T22:11:31.051Z,8.00
2023-02-16T22:14:18.970Z,8.10
2023-02-16T22:17:07.622Z,8.00
2023-02-16T22:19:54.660Z,8.00
2023-02-16T22:22:42.046Z,8.00
2023-02-16T22:25:30.889Z,8.00
2023-02-16T22:28:18.029Z,8.00
2023-02-16T22:31:09.234Z,8.00
2023-02-16T22:33:57.488Z,8.00
2023-02-16T22:36:45.723Z,8.00
2023-02-16T22:39:33.328Z,8.00
2023-02-16T22:42:23.011Z,8.00
2023-02-16T22:45:11.183Z,8.00
2023-02-16T22:47:58.421Z,8.00
2023-02-16T22:50:45.671Z,8.00
2023-02-16T22:53:33.913Z,8.00
2023-02-16T22:56:21.401Z,8.00
2023-02-16T22:59:12.474Z,8.00
2023-02-16T23:02:00.122Z,8.00
2023-02-16T23:04:47.373Z,7.90
2023-02-16T23:07:35.836Z,7.90
2023-02-16T23:10:23.203Z,7.90
2023-02-16T23:13:10.895Z,7.90
2023-02-16T23:16:05.118Z,7.90
2023-02-16T23:18:52.906Z,7.90
2023-02-16T23:21:40.433Z,7.90
2023-02-16T23:24:28.186Z,7.90
2023-02-16T23:27:15.520Z,7.90
2023-02-16T23:30:03.117Z,7.90
2023-02-16T23:32:51.892Z,7.90
2023-02-16T23:35:39.377Z,7.90
2023-02-16T23:38:26.616Z,7.90
2023-02-16T23:41:15.843Z,8.10
2023-02-16T23:44:03.278Z,7.90
2023-02-16T23:46:50.420Z,7.90
2023-02-16T23:49:39.154Z,7.90
2023-02-16T23:52:26.424Z,7.90
2023-02-16T23:55:13.836Z,7.90
2023-02-16T23:58:01.154Z,7.90
